Flag for Slovakia

Past Weather in 48°43'00"N, 21°15'00"E, Slovakia — Yesterday and Last 2 Weeks

Currently: 66 °F. Sunny. (Weather station: Kosice - Barca, Slovakia). See more current weather

Past Weather in 48°43'00"N, 21°15'00"E — Graph

°F

48°43'00"N, 21°15'00"E Temperature Yesterday

Maximum temperature yesterday: 82 °F (at 3:00 pm)
Minimum temperature yesterday: 64 °F (at 5:30 am)
Average temperature yesterday: 74 °F

High & Low Weather Summary for the Past Weeks

 TemperatureHumidityPressure
High93 °F (Jul 13, 1:30 pm)94% (Jul 10, 2:30 am)30.15 "Hg (Jul 10, 2:30 am)
Low63 °F (Jul 22, 4:00 am)31% (Jul 19, 4:00 pm)29.77 "Hg (Jul 21, 3:00 am)
Average78 °F65%29.96 "Hg
* Reported Jul 7 7:00 am — Jul 22 7:00 am, 48°43'00"N, 21°15'00"E. Weather by CustomWeather, © 2024

Note: Actual official high and low records may vary slightly from our data, if they occured in-between our weather recording intervals... More about our weather records

48°43'00"N, 21°15'00"E Weather History for the Previous 24 Hours

Scroll right to see more
 ConditionsComfort  
Time TempWeatherWind HumidityBarometerVisibility
7:00 am
Mon, Jul 22
66 °FSunny.2 mph94%29.86 "Hg10 mi
6:30 am64 °FSunny.1 mph94%29.86 "Hg10 mi
6:00 am64 °FSunny.1 mph94%29.86 "Hg10 mi
5:30 am63 °FFog.1 mph94%29.86 "HgN/A
5:00 am63 °FSunny.2 mph94%29.86 "Hg10 mi
4:30 am63 °FClear.2 mph94%29.86 "Hg10 mi
4:00 am63 °FLight fog.1 mph94%29.86 "HgN/A
3:00 am64 °FClear.1 mph94%29.86 "Hg10 mi
2:30 am64 °FClear.5 mph94%29.86 "Hg10 mi
2:00 am66 °FClear.2 mph94%29.86 "Hg10 mi
1:30 am66 °FClear.2 mph94%29.86 "Hg10 mi
1:00 am66 °FClear.5 mph94%29.86 "Hg10 mi
12:30 am70 °FClear.6 mph83%29.86 "Hg10 mi
12:00 am70 °FClear.5 mph83%29.83 "Hg10 mi
11:30 pm
Sun, Jul 21
70 °FClear.6 mph83%29.83 "Hg10 mi
11:00 pm68 °FClear.2 mph94%29.83 "Hg10 mi
10:30 pm72 °FClear.2 mph83%29.83 "Hg10 mi
10:00 pm72 °FPassing clouds.5 mph88%29.83 "HgN/A
9:30 pm73 °FPassing clouds.5 mph83%29.83 "HgN/A
9:00 pm73 °FPassing clouds.5 mph83%29.83 "HgN/A
8:30 pm73 °FPassing clouds.5 mph89%29.80 "HgN/A
8:00 pm75 °FPassing clouds.2 mph83%29.80 "HgN/A
7:30 pm77 °FPassing clouds.2 mph74%29.80 "HgN/A
7:00 pm75 °FScattered clouds.3 mph78%29.80 "HgN/A
6:30 pm73 °FSprinkles. Scattered clouds.8 mph83%29.80 "HgN/A
6:00 pm82 °FScattered clouds.7 mph58%29.80 "HgN/A
5:30 pm82 °FPassing clouds.9 mph55%29.80 "HgN/A
5:00 pm82 °FPassing clouds.10 mph51%29.80 "HgN/A
4:00 pm82 °FPassing clouds.9 mph51%29.77 "HgN/A
3:00 pm82 °FPassing clouds.6 mph51%29.77 "HgN/A
2:30 pm81 °FPassing clouds.8 mph54%29.80 "HgN/A
2:00 pm81 °FScattered clouds.8 mph54%29.80 "HgN/A
1:30 pm79 °FScattered clouds.5 mph58%29.80 "HgN/A
1:00 pm81 °FScattered clouds.6 mph51%29.80 "HgN/A
12:30 pm81 °FPassing clouds.7 mph54%29.80 "HgN/A
12:00 pm81 °FPassing clouds.7 mph51%29.80 "HgN/A
11:30 am79 °FPassing clouds.5 mph54%29.80 "HgN/A
11:00 am77 °FPassing clouds.7 mph54%29.80 "HgN/A
10:00 am77 °FPassing clouds.8 mph57%29.80 "HgN/A
9:00 am75 °FSunny.2 mph61%29.80 "Hg10 mi
8:30 am73 °FPassing clouds.3 mph69%29.80 "HgN/A
8:00 am70 °FPassing clouds.5 mph78%29.80 "HgN/A
7:30 am68 °FSunny.3 mph83%29.80 "Hg10 mi
7:00 am68 °FSunny.2 mph83%29.80 "Hg10 mi
Weather by CustomWeather, © 2024

See weather overview